Time;durP1;ratioP1;P1;durP2;ratioP2;P2;SDS_P1;SDS_P2;PMS_P1;PMS_P2;Temp;Humidity;BMP_temperature;BMP_pressure;BME280_temperature;BME280_humidity;BME280_pressure;Samples;Min_cycle;Max_cycle;Signal;HPM_P1;HPM_P2
2022/11/11 00:02:22;;;;;;;;;;;11.00;99.90;;;;;;5126907;27;20367;-72
2022/11/11 00:04:47;;;;;;;;;;;11.00;99.90;;;;;;5120190;27;19926;-73
2022/11/11 00:07:13;;;;;;;;;;;11.00;99.90;;;;;;5099018;28;19920;-72
2022/11/11 00:09:38;;;;;;;;;;;11.00;99.90;;;;;;5099374;28;20049;-74
2022/11/11 00:12:04;;;;;;;;;;;11.00;99.90;;;;;;5095200;28;20700;-74
2022/11/11 00:14:29;;;;;;;;;;;11.00;99.90;;;;;;5096665;28;19923;-74
2022/11/11 00:25:04;;;;;;;;;;;11.00;99.90;;;;;;5099683;28;19927;-75
2022/11/11 00:27:30;;;;;;;;;;;11.00;99.90;;;;;;5096754;28;19919;-74
2022/11/11 00:29:56;;;;;;;;;;;11.00;99.90;;;;;;5127413;27;19935;-73
2022/11/11 00:32:29;;;;;;;;;;;11.00;99.90;;;;;;5079743;28;19935;-72
2022/11/11 00:37:40;;;;;;;;;;;11.00;99.90;;;;;;5130964;27;19972;-72
2022/11/11 00:40:06;;;;;;;;;;;11.00;99.90;;;;;;5100652;28;20438;-75
2022/11/11 00:42:32;;;;;;;;;;;11.00;99.90;;;;;;5126992;27;19935;-73
2022/11/11 00:44:57;;;;;;;;;;;11.00;99.90;;;;;;5095652;28;19920;-76
2022/11/11 00:52:58;;;;;;;;;;;11.00;99.90;;;;;;5098066;27;20432;-73
2022/11/11 00:55:24;;;;;;;;;;;11.00;99.90;;;;;;5102699;27;19920;-74
2022/11/11 00:57:49;;;;;;;;;;;11.00;99.90;;;;;;5106555;27;20341;-74
2022/11/11 01:00:15;;;;;;;;;;;11.00;99.90;;;;;;5104308;27;20445;-71
2022/11/11 01:02:41;;;;;;;;;;;10.90;99.90;;;;;;5100519;27;19920;-75
2022/11/11 01:05:06;;;;;;;;;;;10.90;99.90;;;;;;5126797;27;19972;-73
2022/11/11 01:07:32;;;;;;;;;;;10.90;99.90;;;;;;5101154;28;20415;-71
2022/11/11 01:09:57;;;;;;;;;;;10.90;99.90;;;;;;5097760;27;19924;-72
2022/11/11 01:12:23;;;;;;;;;;;10.80;99.90;;;;;;5093403;28;19976;-72
2022/11/11 01:14:48;;;;;;;;;;;10.80;99.90;;;;;;5133840;27;19978;-75
2022/11/11 01:17:14;;;;;;;;;;;10.70;99.90;;;;;;5102767;27;20003;-75
2022/11/11 01:19:39;;;;;;;;;;;10.70;99.90;;;;;;5098727;27;20374;-73
2022/11/11 01:22:05;;;;;;;;;;;10.60;99.90;;;;;;5100330;27;19962;-71
2022/11/11 01:24:30;;;;;;;;;;;10.50;99.90;;;;;;5100193;27;19924;-71
2022/11/11 01:26:56;;;;;;;;;;;10.50;99.90;;;;;;5099383;27;19919;-73
2022/11/11 01:29:21;;;;;;;;;;;10.40;99.90;;;;;;5105183;27;19924;-73
2022/11/11 01:31:47;;;;;;;;;;;10.30;99.90;;;;;;5101192;27;20011;-73
2022/11/11 01:34:12;;;;;;;;;;;10.30;99.90;;;;;;5090467;28;20378;-73
2022/11/11 01:36:38;;;;;;;;;;;10.20;99.90;;;;;;5104795;27;20014;-71
2022/11/11 01:39:03;;;;;;;;;;;10.20;99.90;;;;;;5101237;27;20370;-69
2022/11/11 01:41:33;;;;;;;;;;;10.20;99.90;;;;;;5114030;27;19927;-72
2022/11/11 01:44:12;;;;;;;;;;;10.10;99.90;;;;;;5130811;27;20449;-73
2022/11/11 01:46:57;;;;;;;;;;;10.20;99.90;;;;;;5100036;27;19920;-71
2022/11/11 01:49:22;;;;;;;;;;;10.10;99.90;;;;;;5096798;27;19971;-71
2022/11/11 01:51:57;;;;;;;;;;;10.00;99.90;;;;;;5097084;27;19966;-72
2022/11/11 01:54:45;;;;;;;;;;;10.00;99.90;;;;;;5099201;27;19920;-71
2022/11/11 01:57:18;;;;;;;;;;;10.00;99.90;;;;;;5092033;27;19920;-72
2022/11/11 01:59:46;;;;;;;;;;;10.00;99.90;;;;;;5100652;27;19924;-76
2022/11/11 02:02:16;;;;;;;;;;;10.00;99.90;;;;;;5121395;27;20371;-73
2022/11/11 02:07:28;;;;;;;;;;;10.00;99.90;;;;;;5096112;27;20094;-72
2022/11/11 02:09:55;;;;;;;;;;;9.90;99.90;;;;;;5132565;27;19924;-74
2022/11/11 02:15:05;;;;;;;;;;;10.00;99.90;;;;;;5099363;27;19962;-74
2022/11/11 02:17:31;;;;;;;;;;;9.90;99.90;;;;;;5102464;27;19920;-71
2022/11/11 02:19:59;;;;;;;;;;;10.00;99.90;;;;;;5103093;28;19935;-74
2022/11/11 02:22:30;;;;;;;;;;;10.00;99.90;;;;;;5125847;27;19926;-75
2022/11/11 02:24:58;;;;;;;;;;;9.90;99.90;;;;;;5104996;27;19973;-75
2022/11/11 02:27:25;;;;;;;;;;;9.90;99.90;;;;;;5097202;27;19924;-75
2022/11/11 02:29:52;;;;;;;;;;;9.80;99.90;;;;;;5102137;27;19924;-73
2022/11/11 02:32:19;;;;;;;;;;;9.80;99.90;;;;;;5128216;27;20432;-74
2022/11/11 02:34:44;;;;;;;;;;;9.80;99.90;;;;;;5132522;27;19924;-72
2022/11/11 02:37:10;;;;;;;;;;;9.80;99.90;;;;;;5097025;27;20271;-73
2022/11/11 02:39:39;;;;;;;;;;;9.80;99.90;;;;;;5107504;27;19924;-73
2022/11/11 02:42:09;;;;;;;;;;;9.80;99.90;;;;;;5139375;27;20281;-75
2022/11/11 02:44:35;;;;;;;;;;;9.80;99.90;;;;;;5094025;27;19920;-73
2022/11/11 02:47:00;;;;;;;;;;;9.80;99.90;;;;;;5094440;27;19926;-74
2022/11/11 02:49:25;;;;;;;;;;;9.80;99.90;;;;;;5093329;28;19975;-73
2022/11/11 02:51:51;;;;;;;;;;;9.80;99.90;;;;;;5085671;28;20424;-73
2022/11/11 02:54:16;;;;;;;;;;;9.80;99.90;;;;;;5097581;27;19928;-75
2022/11/11 02:59:26;;;;;;;;;;;9.80;99.90;;;;;;5096058;27;20015;-74
2022/11/11 03:01:51;;;;;;;;;;;9.70;99.90;;;;;;5123729;27;20006;-75
2022/11/11 03:04:17;;;;;;;;;;;9.70;99.90;;;;;;5103147;27;19950;-73
2022/11/11 03:06:42;;;;;;;;;;;9.60;99.90;;;;;;5100802;27;19931;-74
2022/11/11 03:09:08;;;;;;;;;;;9.70;99.90;;;;;;5076681;27;20392;-75
2022/11/11 03:11:37;;;;;;;;;;;9.70;99.90;;;;;;5094132;27;19920;-73
2022/11/11 03:14:02;;;;;;;;;;;9.70;99.90;;;;;;5100223;27;19919;-77
2022/11/11 03:19:12;;;;;;;;;;;9.60;99.90;;;;;;5130983;27;19968;-75
2022/11/11 03:21:38;;;;;;;;;;;9.60;99.90;;;;;;5088157;28;19924;-72
2022/11/11 03:24:03;;;;;;;;;;;9.60;99.90;;;;;;5095741;27;20389;-75
2022/11/11 03:26:29;;;;;;;;;;;9.70;99.90;;;;;;5127601;27;20161;-74
2022/11/11 03:28:54;;;;;;;;;;;9.70;99.90;;;;;;5128224;27;20015;-74
2022/11/11 03:31:20;;;;;;;;;;;9.80;99.90;;;;;;5092889;28;19946;-75
2022/11/11 03:33:45;;;;;;;;;;;9.70;99.90;;;;;;5098101;27;19924;-75
2022/11/11 03:36:11;;;;;;;;;;;9.80;99.90;;;;;;5131777;27;20012;-72
2022/11/11 03:38:36;;;;;;;;;;;9.80;99.90;;;;;;5091813;28;19943;-76
2022/11/11 03:41:02;;;;;;;;;;;9.70;99.90;;;;;;5099966;28;19924;-73
2022/11/11 03:43:29;;;;;;;;;;;9.80;99.90;;;;;;5091729;27;19981;-73
2022/11/11 03:45:56;;;;;;;;;;;9.80;99.90;;;;;;5111131;27;19920;-70
2022/11/11 03:48:22;;;;;;;;;;;9.80;99.90;;;;;;5095126;28;19931;-74
2022/11/11 03:50:48;;;;;;;;;;;9.80;99.90;;;;;;5124531;27;20477;-72
2022/11/11 03:53:14;;;;;;;;;;;9.80;99.90;;;;;;5111778;27;19928;-75
2022/11/11 03:55:40;;;;;;;;;;;9.80;99.90;;;;;;5092702;28;19993;-72
2022/11/11 03:58:05;;;;;;;;;;;9.90;99.90;;;;;;5123860;27;19923;-73
2022/11/11 04:00:31;;;;;;;;;;;10.00;99.90;;;;;;5092131;28;19926;-72
2022/11/11 04:11:41;;;;;;;;;;;10.20;99.90;;;;;;5089574;28;19969;-70
2022/11/11 04:16:55;;;;;;;;;;;10.30;99.90;;;;;;5123599;27;19928;-71
2022/11/11 04:22:05;;;;;;;;;;;10.30;99.90;;;;;;5098644;28;19962;-72
2022/11/11 04:27:15;;;;;;;;;;;10.30;99.90;;;;;;5094689;28;19974;-72
2022/11/11 04:29:41;;;;;;;;;;;10.40;99.90;;;;;;5094506;28;20162;-73
2022/11/11 04:34:55;;;;;;;;;;;10.30;99.90;;;;;;5092515;28;19927;-72
2022/11/11 04:37:21;;;;;;;;;;;10.40;99.90;;;;;;5097804;28;19919;-72
2022/11/11 04:42:31;;;;;;;;;;;10.40;99.90;;;;;;5121079;27;19927;-71
2022/11/11 04:47:55;;;;;;;;;;;10.50;99.90;;;;;;5125386;27;20140;-75
2022/11/11 04:50:21;;;;;;;;;;;10.40;99.90;;;;;;5097078;28;19992;-75
2022/11/11 04:52:47;;;;;;;;;;;10.40;99.90;;;;;;5090274;28;19974;-76
2022/11/11 04:57:57;;;;;;;;;;;10.50;99.90;;;;;;5092099;28;19939;-74
2022/11/11 05:00:22;;;;;;;;;;;10.40;99.90;;;;;;5090103;28;19920;-73
2022/11/11 05:11:05;;;;;;;;;;;10.30;99.90;;;;;;5122319;27;19947;-73
2022/11/11 05:21:45;;;;;;;;;;;10.10;99.90;;;;;;5093797;28;19942;-70
2022/11/11 05:26:55;;;;;;;;;;;10.20;99.90;;;;;;5090300;28;19927;-75
2022/11/11 05:29:20;;;;;;;;;;;10.20;99.90;;;;;;5097665;28;20018;-73
2022/11/11 05:31:45;;;;;;;;;;;10.30;99.90;;;;;;5092244;28;20299;-75
2022/11/11 05:34:11;;;;;;;;;;;10.30;99.90;;;;;;5090873;28;19963;-72
2022/11/11 05:36:36;;;;;;;;;;;10.30;99.90;;;;;;5095473;28;19994;-72
2022/11/11 05:39:02;;;;;;;;;;;10.40;99.90;;;;;;5095726;27;19920;-76
2022/11/11 05:41:27;;;;;;;;;;;10.30;99.90;;;;;;5097171;28;20393;-73
2022/11/11 05:43:53;;;;;;;;;;;10.40;99.90;;;;;;5099071;27;20010;-72
2022/11/11 05:46:18;;;;;;;;;;;10.40;99.90;;;;;;5127635;27;19950;-72
2022/11/11 05:51:30;;;;;;;;;;;10.40;99.90;;;;;;5132195;27;19935;-74
2022/11/11 05:53:56;;;;;;;;;;;10.40;99.90;;;;;;5101879;27;20318;-76
2022/11/11 05:56:21;;;;;;;;;;;10.50;99.90;;;;;;5094222;27;19920;-72
2022/11/11 05:58:47;;;;;;;;;;;10.40;99.90;;;;;;5129961;27;19927;-75
2022/11/11 06:01:12;;;;;;;;;;;10.40;99.90;;;;;;5078997;28;19920;-76
2022/11/11 06:03:38;;;;;;;;;;;10.40;99.90;;;;;;5096901;28;19963;-72
2022/11/11 06:06:03;;;;;;;;;;;10.40;99.90;;;;;;5101878;28;19976;-70
2022/11/11 06:08:29;;;;;;;;;;;10.50;99.90;;;;;;5097490;27;19920;-72
2022/11/11 06:10:54;;;;;;;;;;;10.40;99.90;;;;;;5127111;27;20915;-70
2022/11/11 06:13:20;;;;;;;;;;;10.40;99.90;;;;;;5101155;27;19920;-74
2022/11/11 06:15:45;;;;;;;;;;;10.50;99.90;;;;;;5102432;27;19973;-72
2022/11/11 06:18:11;;;;;;;;;;;10.50;99.90;;;;;;5106606;27;20289;-71
2022/11/11 06:20:36;;;;;;;;;;;10.50;99.90;;;;;;5096911;27;19920;-72
2022/11/11 06:23:02;;;;;;;;;;;10.50;99.90;;;;;;5103010;27;20775;-71
2022/11/11 06:28:13;;;;;;;;;;;10.50;99.90;;;;;;5130762;27;19927;-75
2022/11/11 06:30:39;;;;;;;;;;;10.50;99.90;;;;;;5105872;27;20014;-72
2022/11/11 06:33:08;;;;;;;;;;;10.50;99.90;;;;;;5094131;28;20324;-72
2022/11/11 06:35:34;;;;;;;;;;;10.50;99.90;;;;;;5074867;27;19960;-74
2022/11/11 06:38:02;;;;;;;;;;;10.50;99.90;;;;;;5128305;27;19924;-72
2022/11/11 06:40:29;;;;;;;;;;;10.50;99.90;;;;;;5093529;27;20057;-74
2022/11/11 06:42:55;;;;;;;;;;;10.50;99.90;;;;;;5129382;27;20082;-72
2022/11/11 06:45:21;;;;;;;;;;;10.50;99.90;;;;;;5101560;27;19920;-71
2022/11/11 06:47:47;;;;;;;;;;;10.50;99.90;;;;;;5102696;27;19931;-71
2022/11/11 06:50:12;;;;;;;;;;;10.50;99.90;;;;;;5100850;27;19968;-70
2022/11/11 06:52:38;;;;;;;;;;;10.50;99.90;;;;;;5106792;27;20452;-72
2022/11/11 06:55:03;;;;;;;;;;;10.50;99.90;;;;;;5101599;27;20363;-72
2022/11/11 06:57:29;;;;;;;;;;;10.60;99.90;;;;;;5131196;27;19935;-72
2022/11/11 06:59:54;;;;;;;;;;;10.50;99.90;;;;;;5137845;27;19927;-73
2022/11/11 07:02:20;;;;;;;;;;;10.50;99.90;;;;;;5103994;27;20011;-72
2022/11/11 07:04:45;;;;;;;;;;;10.50;99.90;;;;;;5095654;28;20135;-72
2022/11/11 07:07:11;;;;;;;;;;;10.60;99.90;;;;;;5100888;27;19959;-72
2022/11/11 07:09:36;;;;;;;;;;;10.60;99.90;;;;;;5076538;28;20348;-72
2022/11/11 07:12:02;;;;;;;;;;;10.60;99.90;;;;;;5080810;28;20370;-72
2022/11/11 07:14:27;;;;;;;;;;;10.60;99.90;;;;;;5081167;28;19928;-72
2022/11/11 07:16:53;;;;;;;;;;;10.50;99.90;;;;;;5084267;28;20385;-69
2022/11/11 07:19:18;;;;;;;;;;;10.60;99.90;;;;;;5076499;28;19923;-71
2022/11/11 07:21:44;;;;;;;;;;;10.60;99.90;;;;;;5081273;28;19932;-72
2022/11/11 07:24:10;;;;;;;;;;;10.60;99.90;;;;;;5117398;27;19920;-71
2022/11/11 07:26:35;;;;;;;;;;;10.60;99.90;;;;;;5109339;27;19920;-70
2022/11/11 07:29:01;;;;;;;;;;;10.60;99.90;;;;;;5077717;28;19961;-70
2022/11/11 07:31:26;;;;;;;;;;;10.60;99.90;;;;;;5079467;28;19920;-72
2022/11/11 07:33:53;;;;;;;;;;;10.60;99.90;;;;;;5070189;28;20373;-70
2022/11/11 07:36:18;;;;;;;;;;;10.60;99.90;;;;;;5091947;28;19927;-71
2022/11/11 07:38:44;;;;;;;;;;;10.60;99.90;;;;;;5128958;27;20536;-71
2022/11/11 07:41:09;;;;;;;;;;;10.60;99.90;;;;;;5091471;28;19920;-70
2022/11/11 07:43:35;;;;;;;;;;;10.70;99.90;;;;;;5072830;28;19931;-71
2022/11/11 07:46:00;;;;;;;;;;;10.70;99.90;;;;;;5090215;28;19923;-70
2022/11/11 07:48:26;;;;;;;;;;;10.70;99.90;;;;;;5090470;28;19967;-70
2022/11/11 07:50:53;;;;;;;;;;;10.70;99.90;;;;;;5111739;27;20015;-72
2022/11/11 07:53:18;;;;;;;;;;;10.70;99.90;;;;;;5084473;28;20386;-72
2022/11/11 07:55:45;;;;;;;;;;;10.70;99.90;;;;;;5073430;28;19920;-71
2022/11/11 07:58:10;;;;;;;;;;;10.70;99.90;;;;;;5105573;28;19943;-71
2022/11/11 08:00:36;;;;;;;;;;;10.70;99.90;;;;;;5074600;28;19924;-70
2022/11/11 08:03:02;;;;;;;;;;;10.70;99.90;;;;;;5105632;28;19920;-71
2022/11/11 08:05:27;;;;;;;;;;;10.70;99.90;;;;;;5111581;27;19973;-71
2022/11/11 08:07:53;;;;;;;;;;;10.70;99.90;;;;;;5076719;28;19920;-71
2022/11/11 08:10:18;;;;;;;;;;;10.80;99.90;;;;;;5084171;28;19932;-71
2022/11/11 08:15:28;;;;;;;;;;;10.70;99.90;;;;;;5123638;27;19980;-70
2022/11/11 08:17:54;;;;;;;;;;;10.80;99.90;;;;;;5123067;27;19928;-70
2022/11/11 08:20:19;;;;;;;;;;;10.80;99.90;;;;;;5088323;28;19923;-71
2022/11/11 08:22:45;;;;;;;;;;;10.80;99.90;;;;;;5073522;28;20044;-70
2022/11/11 08:25:13;;;;;;;;;;;10.90;99.90;;;;;;5069523;28;19928;-72
2022/11/11 08:27:38;;;;;;;;;;;10.90;99.90;;;;;;5090815;28;19992;-71
2022/11/11 08:30:05;;;;;;;;;;;10.80;99.90;;;;;;5076787;28;19997;-71
2022/11/11 08:32:30;;;;;;;;;;;10.90;99.90;;;;;;5074187;28;20377;-71
2022/11/11 08:34:56;;;;;;;;;;;10.90;99.90;;;;;;5075205;28;19920;-70
2022/11/11 08:37:21;;;;;;;;;;;10.90;99.90;;;;;;5077155;28;20294;-69
2022/11/11 08:39:47;;;;;;;;;;;10.90;99.90;;;;;;5077841;28;19924;-68
2022/11/11 08:42:12;;;;;;;;;;;10.90;99.90;;;;;;5079895;28;19923;-73
2022/11/11 08:44:38;;;;;;;;;;;10.90;99.90;;;;;;5082840;28;19920;-71
2022/11/11 08:47:03;;;;;;;;;;;11.00;99.90;;;;;;5081206;28;19924;-72
2022/11/11 08:49:29;;;;;;;;;;;11.10;99.90;;;;;;5082216;28;20440;-72
2022/11/11 08:51:54;;;;;;;;;;;11.10;99.90;;;;;;5070383;28;19923;-71
2022/11/11 08:54:20;;;;;;;;;;;11.10;99.90;;;;;;5109991;28;19919;-72
2022/11/11 08:56:45;;;;;;;;;;;11.20;99.90;;;;;;5119719;28;20388;-72
2022/11/11 08:59:11;;;;;;;;;;;11.20;99.90;;;;;;5078892;28;19920;-71
2022/11/11 09:01:36;;;;;;;;;;;11.30;99.90;;;;;;5075202;28;20409;-72
2022/11/11 09:04:02;;;;;;;;;;;11.30;99.90;;;;;;5075385;28;20366;-69
2022/11/11 09:06:27;;;;;;;;;;;11.30;99.90;;;;;;5118951;27;20366;-70
2022/11/11 09:08:53;;;;;;;;;;;11.30;99.90;;;;;;5098308;27;19923;-73
2022/11/11 09:11:19;;;;;;;;;;;11.30;99.90;;;;;;5099114;27;19923;-70
2022/11/11 09:13:47;;;;;;;;;;;11.40;99.90;;;;;;5103442;28;19927;-72
2022/11/11 09:16:13;;;;;;;;;;;11.40;99.90;;;;;;5106665;27;19928;-73
2022/11/11 09:18:39;;;;;;;;;;;11.40;99.90;;;;;;5108581;27;20431;-72
2022/11/11 09:21:04;;;;;;;;;;;11.30;99.90;;;;;;5107966;27;19924;-72
2022/11/11 09:23:30;;;;;;;;;;;11.30;99.90;;;;;;5100052;27;20475;-73
2022/11/11 09:25:57;;;;;;;;;;;11.40;99.90;;;;;;5105100;27;19923;-71
2022/11/11 09:28:22;;;;;;;;;;;11.40;99.90;;;;;;5104228;27;19928;-72
2022/11/11 09:30:48;;;;;;;;;;;11.50;99.90;;;;;;5136236;27;20371;-70
2022/11/11 09:33:15;;;;;;;;;;;11.50;99.90;;;;;;5102187;27;19965;-73
2022/11/11 09:35:40;;;;;;;;;;;11.50;99.90;;;;;;5100325;27;19990;-72
2022/11/11 09:38:06;;;;;;;;;;;11.60;99.90;;;;;;5133920;27;19967;-71
2022/11/11 09:40:43;;;;;;;;;;;11.60;99.90;;;;;;5097205;27;20285;-72
2022/11/11 09:43:14;;;;;;;;;;;11.70;99.90;;;;;;5094166;27;19938;-72
2022/11/11 09:45:53;;;;;;;;;;;11.70;99.90;;;;;;5096922;27;20389;-71
2022/11/11 09:48:24;;;;;;;;;;;11.80;99.90;;;;;;5127364;27;19920;-71
2022/11/11 09:50:53;;;;;;;;;;;11.80;99.90;;;;;;5093006;27;19924;-70
2022/11/11 09:53:21;;;;;;;;;;;11.80;99.90;;;;;;5127886;27;20023;-71
2022/11/11 09:56:05;;;;;;;;;;;11.90;99.90;;;;;;5092303;27;19928;-71
2022/11/11 09:58:39;;;;;;;;;;;11.90;99.90;;;;;;5125799;27;20282;-72
2022/11/11 10:01:08;;;;;;;;;;;11.90;99.90;;;;;;5130850;27;19964;-71
2022/11/11 10:03:38;;;;;;;;;;;12.00;99.90;;;;;;5104106;27;19926;-72
2022/11/11 10:06:15;;;;;;;;;;;12.00;99.90;;;;;;5098137;27;19935;-70
2022/11/11 10:08:45;;;;;;;;;;;12.00;99.90;;;;;;5131408;27;19920;-70
2022/11/11 10:11:15;;;;;;;;;;;12.10;99.90;;;;;;5101266;27;19963;-72
2022/11/11 10:13:41;;;;;;;;;;;12.10;99.90;;;;;;5095782;27;19919;-71
2022/11/11 10:16:12;;;;;;;;;;;12.20;99.90;;;;;;5102433;27;19950;-71
2022/11/11 10:18:44;;;;;;;;;;;12.30;99.90;;;;;;5097617;27;19935;-71
2022/11/11 10:21:23;;;;;;;;;;;12.40;99.90;;;;;;5093952;27;19935;-69
2022/11/11 10:23:49;;;;;;;;;;;12.30;99.90;;;;;;5092309;27;19966;-69
2022/11/11 10:26:19;;;;;;;;;;;12.30;99.90;;;;;;5124595;27;19928;-71
2022/11/11 10:28:44;;;;;;;;;;;12.30;99.90;;;;;;5092415;27;21494;-70
2022/11/11 10:31:13;;;;;;;;;;;12.30;99.90;;;;;;5100659;27;19923;-71
2022/11/11 10:33:49;;;;;;;;;;;12.30;99.90;;;;;;5096738;27;19935;-71
2022/11/11 10:36:17;;;;;;;;;;;12.40;99.90;;;;;;5102930;27;19927;-70
2022/11/11 10:38:51;;;;;;;;;;;12.40;99.90;;;;;;5132344;27;19963;-70
2022/11/11 10:41:37;;;;;;;;;;;12.50;99.90;;;;;;5128911;27;19928;-69
2022/11/11 10:44:19;;;;;;;;;;;12.50;99.90;;;;;;5093046;27;19930;-71
2022/11/11 10:47:03;;;;;;;;;;;12.40;99.90;;;;;;5138282;27;19967;-68
2022/11/11 10:49:31;;;;;;;;;;;12.30;99.90;;;;;;5137780;27;19934;-72
2022/11/11 10:51:59;;;;;;;;;;;12.30;99.90;;;;;;5137198;27;20370;-71
2022/11/11 10:54:31;;;;;;;;;;;12.30;99.90;;;;;;5109629;28;20062;-66
2022/11/11 10:57:13;;;;;;;;;;;12.30;99.90;;;;;;5112514;28;20006;-68
2022/11/11 10:59:42;;;;;;;;;;;12.30;99.90;;;;;;5129510;27;19946;-71
2022/11/11 11:02:26;;;;;;;;;;;12.30;99.90;;;;;;5105702;27;19930;-72
2022/11/11 11:05:05;;;;;;;;;;;12.40;99.90;;;;;;5108098;28;20002;-70
2022/11/11 11:07:38;;;;;;;;;;;12.50;99.90;;;;;;5102854;27;19941;-71
2022/11/11 11:10:15;;;;;;;;;;;12.50;99.90;;;;;;5099263;28;19935;-68
2022/11/11 11:12:53;;;;;;;;;;;12.50;99.90;;;;;;5105796;27;19963;-68
2022/11/11 11:15:23;;;;;;;;;;;12.40;99.90;;;;;;5136539;27;19928;-67
2022/11/11 11:17:52;;;;;;;;;;;12.40;99.90;;;;;;5105549;27;20259;-71
2022/11/11 11:20:19;;;;;;;;;;;12.40;99.90;;;;;;5105663;27;19931;-73
2022/11/11 11:22:51;;;;;;;;;;;12.30;99.90;;;;;;5130476;27;20001;-71
2022/11/11 11:25:21;;;;;;;;;;;12.30;99.90;;;;;;5095451;27;19924;-71
2022/11/11 11:27:48;;;;;;;;;;;12.20;99.90;;;;;;5094095;27;19928;-71
2022/11/11 11:30:15;;;;;;;;;;;12.20;99.90;;;;;;5127063;27;19931;-71
2022/11/11 11:32:42;;;;;;;;;;;12.30;99.90;;;;;;5082684;27;20354;-71
2022/11/11 11:35:08;;;;;;;;;;;12.30;99.90;;;;;;5128246;27;20010;-68
2022/11/11 11:37:47;;;;;;;;;;;12.30;99.90;;;;;;5123224;27;20038;-67
2022/11/11 11:40:13;;;;;;;;;;;12.20;99.90;;;;;;5100378;27;20051;-72
2022/11/11 11:42:39;;;;;;;;;;;12.10;99.90;;;;;;5099228;27;19993;-69
2022/11/11 11:45:15;;;;;;;;;;;12.10;99.90;;;;;;5080136;28;20358;-68
2022/11/11 11:47:42;;;;;;;;;;;12.10;99.90;;;;;;5101507;27;19927;-69
2022/11/11 11:50:23;;;;;;;;;;;12.00;99.90;;;;;;5094337;28;19928;-68
2022/11/11 11:53:15;;;;;;;;;;;12.10;99.90;;;;;;5128112;27;20385;-69
2022/11/11 11:55:53;;;;;;;;;;;12.10;99.90;;;;;;5095242;27;19924;-69
2022/11/11 11:58:26;;;;;;;;;;;12.20;99.90;;;;;;5125533;27;19921;-68
2022/11/11 12:01:00;;;;;;;;;;;12.20;99.90;;;;;;5099656;28;19927;-68
2022/11/11 12:03:49;;;;;;;;;;;12.20;99.90;;;;;;5096681;27;20413;-68
2022/11/11 12:06:27;;;;;;;;;;;12.20;99.90;;;;;;5098249;28;19967;-68
2022/11/11 12:09:04;;;;;;;;;;;12.30;99.90;;;;;;5101141;27;20381;-70
2022/11/11 12:11:45;;;;;;;;;;;12.30;99.90;;;;;;5100777;28;19931;-70
2022/11/11 12:14:25;;;;;;;;;;;12.30;99.90;;;;;;5128533;27;20358;-68
2022/11/11 12:17:14;;;;;;;;;;;12.20;99.90;;;;;;5114168;27;20258;-68
2022/11/11 12:19:45;;;;;;;;;;;12.10;99.90;;;;;;5086573;28;20369;-68
2022/11/11 12:22:14;;;;;;;;;;;12.10;99.90;;;;;;5136501;27;19919;-68
2022/11/11 12:24:58;;;;;;;;;;;12.10;99.90;;;;;;5095571;28;19920;-70
2022/11/11 12:27:36;;;;;;;;;;;12.10;99.90;;;;;;5093149;28;19920;-70
2022/11/11 12:30:10;;;;;;;;;;;12.10;99.90;;;;;;5142603;27;20022;-70
2022/11/11 12:32:35;;;;;;;;;;;12.20;99.90;;;;;;5131195;27;20369;-66
2022/11/11 12:35:01;;;;;;;;;;;12.20;99.90;;;;;;5103839;28;20007;-68
2022/11/11 12:37:33;;;;;;;;;;;12.20;99.90;;;;;;5100491;28;20354;-69
2022/11/11 12:40:17;;;;;;;;;;;12.10;99.90;;;;;;5131933;27;19920;-69
2022/11/11 12:42:55;;;;;;;;;;;12.20;99.90;;;;;;5130877;27;19963;-67
2022/11/11 12:45:22;;;;;;;;;;;12.20;99.90;;;;;;5135828;27;19923;-67
2022/11/11 12:48:04;;;;;;;;;;;12.20;99.90;;;;;;5100735;28;19946;-68
2022/11/11 12:50:36;;;;;;;;;;;12.20;99.90;;;;;;5089679;28;19923;-68
2022/11/11 12:53:25;;;;;;;;;;;12.30;99.90;;;;;;5103932;27;19934;-67
2022/11/11 12:56:03;;;;;;;;;;;12.30;99.90;;;;;;5137489;27;19926;-67
2022/11/11 12:58:29;;;;;;;;;;;12.30;99.90;;;;;;5098855;27;20430;-69
2022/11/11 13:01:07;;;;;;;;;;;12.30;99.90;;;;;;5105428;27;21790;-68
2022/11/11 13:03:53;;;;;;;;;;;12.40;99.90;;;;;;5133767;27;20014;-67
2022/11/11 13:06:28;;;;;;;;;;;12.40;99.90;;;;;;5101195;28;20038;-68
2022/11/11 13:08:59;;;;;;;;;;;12.30;99.90;;;;;;5107319;27;19920;-67
2022/11/11 13:11:28;;;;;;;;;;;12.30;99.90;;;;;;5104196;27;19924;-68
2022/11/11 13:14:23;;;;;;;;;;;12.30;99.90;;;;;;5077864;28;20704;-68
2022/11/11 13:16:54;;;;;;;;;;;12.30;99.90;;;;;;5034910;28;20025;-68
2022/11/11 13:19:27;;;;;;;;;;;12.20;99.90;;;;;;5097254;28;19924;-67
2022/11/11 13:21:54;;;;;;;;;;;12.20;99.90;;;;;;5099659;27;19927;-67
2022/11/11 13:24:21;;;;;;;;;;;12.30;99.90;;;;;;5140194;27;19954;-68
2022/11/11 13:26:53;;;;;;;;;;;12.50;99.90;;;;;;5105060;27;19924;-67
2022/11/11 13:29:37;;;;;;;;;;;12.50;99.90;;;;;;5137266;27;20366;-67
2022/11/11 13:32:04;;;;;;;;;;;12.50;99.90;;;;;;5109845;28;19924;-67
2022/11/11 13:34:33;;;;;;;;;;;12.60;99.90;;;;;;5131322;27;19919;-67
2022/11/11 13:37:00;;;;;;;;;;;12.70;99.90;;;;;;5105464;28;20363;-66
2022/11/11 13:39:31;;;;;;;;;;;12.70;99.90;;;;;;5098430;28;19931;-67
2022/11/11 13:41:57;;;;;;;;;;;12.70;99.90;;;;;;5107992;28;19976;-67
2022/11/11 13:44:26;;;;;;;;;;;12.80;99.90;;;;;;5106477;28;20674;-67
2022/11/11 13:46:57;;;;;;;;;;;12.80;99.90;;;;;;5108672;28;19919;-67
2022/11/11 13:49:32;;;;;;;;;;;12.80;99.90;;;;;;5106605;28;19924;-67
2022/11/11 13:51:58;;;;;;;;;;;12.90;99.90;;;;;;5091800;28;19923;-67
2022/11/11 13:54:38;;;;;;;;;;;12.90;99.90;;;;;;5106457;28;20434;-66
2022/11/11 13:57:25;;;;;;;;;;;12.90;99.90;;;;;;5115882;27;20068;-67
2022/11/11 14:00:03;;;;;;;;;;;12.90;99.90;;;;;;5136642;27;19919;-67
2022/11/11 14:02:32;;;;;;;;;;;12.90;99.90;;;;;;5103956;28;19973;-68
2022/11/11 14:05:01;;;;;;;;;;;12.90;99.90;;;;;;5105917;28;19928;-66
2022/11/11 14:07:41;;;;;;;;;;;12.80;99.90;;;;;;5092485;28;20469;-68
2022/11/11 14:10:07;;;;;;;;;;;12.80;99.90;;;;;;5111751;28;19932;-67
2022/11/11 14:12:34;;;;;;;;;;;12.80;99.90;;;;;;5102922;28;19920;-66
2022/11/11 14:15:00;;;;;;;;;;;12.70;99.90;;;;;;5105569;28;20334;-67
2022/11/11 14:17:27;;;;;;;;;;;12.70;99.90;;;;;;5107788;28;19920;-66
2022/11/11 14:19:52;;;;;;;;;;;12.70;99.90;;;;;;5136634;27;19927;-67
2022/11/11 14:22:24;;;;;;;;;;;12.50;99.90;;;;;;5104521;28;19924;-67
2022/11/11 14:24:49;;;;;;;;;;;12.50;99.90;;;;;;5102279;28;20155;-66
2022/11/11 14:27:16;;;;;;;;;;;12.50;99.90;;;;;;5106900;28;19931;-67
2022/11/11 14:29:49;;;;;;;;;;;12.40;99.90;;;;;;5140599;27;20019;-67
2022/11/11 14:32:28;;;;;;;;;;;12.30;99.90;;;;;;5137735;27;20261;-68
2022/11/11 14:34:54;;;;;;;;;;;12.30;99.90;;;;;;5138042;27;19920;-67
2022/11/11 14:37:32;;;;;;;;;;;12.20;99.90;;;;;;5097696;28;19974;-67
2022/11/11 14:39:57;;;;;;;;;;;12.10;99.90;;;;;;5143465;27;20446;-67
2022/11/11 14:42:32;;;;;;;;;;;12.10;99.90;;;;;;5146740;27;19923;-64
2022/11/11 14:44:57;;;;;;;;;;;12.10;99.90;;;;;;5078633;28;19970;-64
2022/11/11 14:47:29;;;;;;;;;;;12.00;99.90;;;;;;5105816;27;19945;-64
2022/11/11 14:49:55;;;;;;;;;;;11.90;99.90;;;;;;5100044;28;19924;-64
2022/11/11 14:52:33;;;;;;;;;;;11.90;99.90;;;;;;5107632;28;20488;-64
2022/11/11 14:55:02;;;;;;;;;;;11.90;99.90;;;;;;5091569;28;20374;-64
2022/11/11 14:57:36;;;;;;;;;;;11.80;99.90;;;;;;5104225;28;19927;-64
2022/11/11 15:00:03;;;;;;;;;;;11.70;99.90;;;;;;5095805;28;19971;-64
2022/11/11 15:02:37;;;;;;;;;;;11.60;99.90;;;;;;5108286;28;19920;-64
2022/11/11 15:05:05;;;;;;;;;;;11.60;99.90;;;;;;5125663;27;20936;-64
2022/11/11 15:07:33;;;;;;;;;;;11.50;99.90;;;;;;5096492;28;19934;-64
2022/11/11 15:10:08;;;;;;;;;;;11.40;99.90;;;;;;5103476;28;19924;-65
2022/11/11 15:12:40;;;;;;;;;;;11.30;99.90;;;;;;5095431;28;19924;-66
2022/11/11 15:15:21;;;;;;;;;;;11.20;99.90;;;;;;5098668;28;20020;-66
2022/11/11 15:17:59;;;;;;;;;;;11.10;99.90;;;;;;5105469;28;20282;-66
2022/11/11 15:20:43;;;;;;;;;;;11.00;99.90;;;;;;5113683;27;20025;-66
2022/11/11 15:23:15;;;;;;;;;;;11.00;99.90;;;;;;5123802;27;19920;-67
2022/11/11 15:25:52;;;;;;;;;;;10.90;99.90;;;;;;5102656;27;19928;-66
2022/11/11 15:28:23;;;;;;;;;;;10.90;99.90;;;;;;5106760;28;19924;-65
2022/11/11 15:30:59;;;;;;;;;;;10.80;99.90;;;;;;5107608;27;20374;-66
2022/11/11 15:33:37;;;;;;;;;;;10.80;99.90;;;;;;5132414;27;19920;-66
2022/11/11 15:36:14;;;;;;;;;;;10.70;99.90;;;;;;5110211;28;19946;-65
2022/11/11 15:38:40;;;;;;;;;;;10.60;99.90;;;;;;5109904;28;20301;-66
2022/11/11 15:41:26;;;;;;;;;;;10.60;99.90;;;;;;5093230;28;19920;-67
2022/11/11 15:43:52;;;;;;;;;;;10.50;99.90;;;;;;5110485;27;19920;-68
2022/11/11 15:46:25;;;;;;;;;;;10.40;99.90;;;;;;5096926;28;19924;-68
2022/11/11 15:48:51;;;;;;;;;;;10.40;99.90;;;;;;5096755;28;20017;-68
2022/11/11 15:51:29;;;;;;;;;;;10.20;99.90;;;;;;5100579;27;20370;-68
2022/11/11 15:54:07;;;;;;;;;;;10.20;99.90;;;;;;5128306;27;20374;-68